Historique des stations

Station météo de Digny

Altitude de la station : 230 m







Données météorologiques pour le 28/11/2021
Date
Heure
Températures Humidité Point de rosée Vitesse
du vent
Direction Rafales Windchill Pression Pluviométrie
Cumul
Date
Heure
Températures Humidité Point de rosée Vitesse
du vent
Direction Rafales Windchill Pression Pluviométrie
Cumul
28/11/2021 20:440.8 °C88 %-1.1 °C11 km/hO50 km/h-1.7 1005 hPa-
28/11/2021 20:310.8 °C88 %-1.1 °C21 km/h---3.9 1005 hPa-
28/11/2021 20:290.8 °C88 %-1.1 °C26 km/hO50 km/h-4.4 1005 hPa-
28/11/2021 20:160.6 °C89 %-1.1 °C10 km/h---2.2 1005 hPa-
28/11/2021 20:140.6 °C89 %-1.1 °C13 km/hO50 km/h-2.8 1005 hPa-
28/11/2021 20:010.6 °C89 %-1.1 °C13 km/h---2.8 1005 hPa-
28/11/2021 19:590.6 °C89 %-1.1 °C11 km/hO50 km/h-2.8 1005 hPa-
28/11/2021 19:460.5 °C89 %-1.1 °C14 km/h---2.8 1005 hPa-
28/11/2021 19:440.5 °C89 %-1.1 °C14 km/hO50 km/h-2.8 1005 hPa-
28/11/2021 19:310.4 °C89 %-1.1 °C14 km/h---2.8 1005 hPa-
28/11/2021 19:290.5 °C89 %-1.1 °C13 km/hO50 km/h-2.8 1005 hPa-
28/11/2021 19:160.4 °C90 %-1.1 °C16 km/h---3.9 1005 hPa-
28/11/2021 19:140.4 °C90 %-1.1 °C13 km/hO50 km/h-2.8 1005 hPa-
28/11/2021 19:010.4 °C89 %-1.1 °C19 km/h---4.4 1005 hPa-
28/11/2021 18:590.4 °C89 %-1.1 °C14 km/hO50 km/h-2.8 1005 hPa-
28/11/2021 18:460.6 °C89 %-1.1 °C18 km/h---4.4 1005 hPa-
28/11/2021 18:440.6 °C89 %-1.1 °C18 km/hO50 km/h-4.4 1005 hPa-
28/11/2021 18:310.7 °C88 %-1.1 °C16 km/h---3.9 1004 hPa-
28/11/2021 18:290.8 °C88 %-1.1 °C16 km/hO50 km/h-3.9 1004 hPa-
28/11/2021 18:160.7 °C88 %-1.1 °C19 km/h---4.4 1004 hPa-
28/11/2021 18:140.7 °C88 %-1.1 °C21 km/hO50 km/h-4.4 1004 hPa-
28/11/2021 18:010.8 °C87 %-1.1 °C16 km/h---3.3 1004 hPa-
28/11/2021 17:590.9 °C86 %-1.1 °C14 km/hO50 km/h-2.2 1004 hPa-
28/11/2021 17:461.3 °C84 %-1.1 °C14 km/h---2.2 1004 hPa-
28/11/2021 17:441.4 °C84 %-1.1 °C13 km/hO50 km/h-1.7 1004 hPa-
28/11/2021 17:311.7 °C82 %-1.1 °C19 km/h---2.8 1004 hPa-
28/11/2021 17:291.8 °C82 %-1.1 °C21 km/hO50 km/h-3.3 1004 hPa-
28/11/2021 17:162.0 °C82 %-0.6 °C21 km/h---2.2 1004 hPa-
28/11/2021 17:142.1 °C81 %-0.6 °C18 km/hO50 km/h-2.2 1004 hPa-
28/11/2021 17:012.3 °C81 %-0.6 °C23 km/h---2.8 1004 hPa-
28/11/2021 16:592.4 °C81 %-0.6 °C29 km/hO50 km/h-3.3 1004 hPa-
28/11/2021 16:462.8 °C79 %-0.6 °C26 km/h---2.2 1004 hPa-
28/11/2021 16:442.8 °C79 %-0.6 °C21 km/hONO50 km/h-1.7 1004 hPa-
28/11/2021 16:313.2 °C82 %0.6 °C29 km/h---2.2 1004 hPa-
28/11/2021 16:293.2 °C82 %0.6 °C26 km/hO50 km/h-1.7 1004 hPa-
28/11/2021 16:163.4 °C81 %0.6 °C19 km/h---0.6 1004 hPa-
28/11/2021 16:143.5 °C80 %0.6 °C24 km/hO50 km/h-1.7 1004 hPa-
28/11/2021 16:013.7 °C80 %0.6 °C26 km/h---1.1 1003 hPa-
28/11/2021 15:593.7 °C81 %0.6 °C26 km/hONO50 km/h-1.1 1003 hPa-
28/11/2021 15:473.7 °C83 %1.1 °C19 km/h--0.0 1003 hPa-
28/11/2021 15:443.8 °C83 %1.1 °C19 km/hO50 km/h0.0 1003 hPa-
28/11/2021 15:313.9 °C84 %1.7 °C19 km/h--0.0 1003 hPa-
28/11/2021 15:294.0 °C84 %1.7 °C16 km/hONO50 km/h0.6 1003 hPa-
28/11/2021 15:173.7 °C86 %1.7 °C23 km/h---0.6 1003 hPa-
28/11/2021 15:143.7 °C87 %1.7 °C16 km/hONO50 km/h0.6 1003 hPa-
28/11/2021 15:023.2 °C86 %1.1 °C27 km/h---1.7 1003 hPa-
28/11/2021 14:593.2 °C84 %0.6 °C21 km/hONO50 km/h-1.1 1003 hPa-
28/11/2021 14:474.7 °C80 %1.7 °C29 km/h--0.0 1003 hPa-
28/11/2021 14:444.8 °C79 %1.7 °C35 km/hO50 km/h-0.6 1003 hPa-
28/11/2021 14:324.4 °C79 %1.1 °C27 km/h---0.6 1003 hPa-
28/11/2021 14:294.4 °C79 %1.1 °C26 km/hONO50 km/h0.0 1003 hPa-
28/11/2021 14:174.5 °C79 %1.1 °C32 km/h---1.1 1003 hPa-
28/11/2021 14:144.5 °C80 %1.1 °C26 km/hO50 km/h0.0 1003 hPa-
28/11/2021 14:024.3 °C81 %1.1 °C19 km/h--0.6 1003 hPa-
28/11/2021 14:004.3 °C81 %1.1 °C31 km/hO50 km/h-1.1 1003 hPa-
28/11/2021 13:474.4 °C82 %1.7 °C31 km/h---1.1 1003 hPa-
28/11/2021 13:454.3 °C82 %1.7 °C19 km/hONO50 km/h0.6 1003 hPa-
28/11/2021 13:324.2 °C82 %1.7 °C37 km/h---1.7 1003 hPa-
28/11/2021 13:304.3 °C83 %1.7 °C35 km/hONO50 km/h-1.1 1003 hPa-
28/11/2021 13:174.2 °C84 %1.7 °C32 km/h---1.1 1003 hPa-
28/11/2021 13:154.2 °C85 %2.2 °C32 km/hO50 km/h-1.1 1003 hPa-
28/11/2021 13:024.1 °C86 %2.2 °C29 km/h---1.7 1003 hPa-
28/11/2021 13:004.0 °C86 %1.7 °C29 km/hONO50 km/h-1.7 1003 hPa-
28/11/2021 12:474.4 °C85 %2.2 °C37 km/h---1.7 1003 hPa-
28/11/2021 12:454.4 °C86 %2.2 °C32 km/hONO50 km/h-1.1 1003 hPa-
28/11/2021 12:324.2 °C87 %2.2 °C24 km/h--0.0 1003 hPa-
28/11/2021 12:304.1 °C88 %2.2 °C34 km/hO50 km/h-2.2 1003 hPa-
28/11/2021 12:173.7 °C88 %2.2 °C19 km/h--0.0 1003 hPa-
28/11/2021 12:153.8 °C88 %2.2 °C24 km/hONO50 km/h-0.6 1003 hPa-
28/11/2021 12:023.8 °C88 %2.2 °C23 km/h---0.6 1003 hPa-
28/11/2021 12:003.8 °C88 %2.2 °C24 km/hO50 km/h-0.6 1003 hPa-
28/11/2021 11:473.6 °C88 %1.7 °C24 km/h---1.7 1003 hPa-
28/11/2021 11:453.5 °C88 %1.7 °C24 km/hONO50 km/h-1.7 1003 hPa-
28/11/2021 11:323.4 °C89 %1.7 °C24 km/h---1.7 1003 hPa-
28/11/2021 11:303.4 °C89 %1.7 °C23 km/hONO50 km/h-1.1 1003 hPa-
28/11/2021 11:173.3 °C89 %1.7 °C19 km/h---0.6 1003 hPa-
28/11/2021 11:153.3 °C89 %1.7 °C26 km/hO50 km/h-1.7 1003 hPa-
28/11/2021 11:023.3 °C90 %1.7 °C24 km/h---1.7 1003 hPa-
28/11/2021 11:003.3 °C90 %1.7 °C26 km/hO50 km/h-1.7 1003 hPa-
28/11/2021 10:473.3 °C89 %1.7 °C18 km/h---0.6 1003 hPa-
28/11/2021 10:453.3 °C88 %1.7 °C27 km/hONO50 km/h-1.7 1003 hPa-
28/11/2021 10:323.2 °C88 %1.7 °C39 km/h---2.8 1003 hPa-
28/11/2021 10:303.2 °C88 %1.7 °C31 km/hONO50 km/h-2.2 1003 hPa-
28/11/2021 10:173.1 °C90 %1.7 °C24 km/h---1.7 1003 hPa-
28/11/2021 10:153.1 °C90 %1.7 °C18 km/hONO48 km/h-0.6 1003 hPa-
28/11/2021 10:013.0 °C90 %1.7 °C29 km/h---2.8 1003 hPa-
28/11/2021 09:593.0 °C90 %1.7 °C21 km/hONO48 km/h-1.7 1003 hPa-
28/11/2021 09:462.9 °C91 %1.7 °C32 km/h---3.3 1003 hPa-
28/11/2021 09:442.9 °C91 %1.7 °C26 km/hO48 km/h-2.2 1003 hPa-
28/11/2021 09:312.8 °C91 %1.7 °C24 km/h---2.2 1002 hPa-
28/11/2021 09:292.8 °C91 %1.7 °C24 km/hO48 km/h-2.2 1002 hPa-
28/11/2021 09:162.8 °C91 %1.7 °C14 km/h---0.6 1002 hPa-
28/11/2021 09:142.8 °C91 %1.7 °C31 km/hO48 km/h-3.3 1002 hPa-
28/11/2021 09:012.7 °C91 %1.7 °C27 km/h---2.8 1002 hPa-
28/11/2021 08:592.7 °C91 %1.7 °C19 km/hO48 km/h-1.7 1002 hPa-
28/11/2021 08:462.6 °C92 %1.7 °C23 km/h---2.2 1002 hPa-
28/11/2021 08:442.7 °C92 %1.7 °C23 km/hO48 km/h-2.2 1002 hPa-
28/11/2021 08:312.6 °C93 %1.7 °C21 km/h---1.7 1002 hPa-
28/11/2021 08:292.6 °C93 %1.7 °C21 km/hONO48 km/h-1.7 1002 hPa-
28/11/2021 08:162.5 °C93 %1.7 °C31 km/h---3.3 1001 hPa-
28/11/2021 08:142.4 °C93 %1.7 °C19 km/hONO48 km/h-2.2 1001 hPa-
28/11/2021 08:012.5 °C93 %1.7 °C23 km/h---2.2 1001 hPa-
28/11/2021 07:592.5 °C93 %1.7 °C23 km/hONO48 km/h-2.2 1001 hPa-
28/11/2021 07:462.6 °C93 %1.7 °C24 km/h---2.2 1001 hPa-
28/11/2021 07:442.6 °C93 %1.7 °C32 km/hO48 km/h-3.3 1001 hPa-
28/11/2021 07:312.6 °C93 %1.7 °C26 km/h---2.2 1001 hPa-
28/11/2021 07:292.6 °C93 %1.7 °C27 km/hO48 km/h-2.8 1001 hPa-
28/11/2021 07:162.6 °C93 %1.7 °C18 km/h---1.1 1001 hPa-
28/11/2021 07:142.6 °C93 %1.7 °C26 km/hO48 km/h-2.2 1001 hPa-
28/11/2021 07:012.6 °C93 %1.7 °C21 km/h---1.7 1001 hPa-
28/11/2021 06:592.5 °C93 %1.7 °C27 km/hO48 km/h-2.8 1001 hPa-
28/11/2021 06:462.5 °C93 %1.7 °C26 km/h---2.2 1001 hPa-
28/11/2021 06:442.5 °C93 %1.7 °C26 km/hO48 km/h-2.2 1001 hPa-
28/11/2021 06:312.6 °C92 %1.7 °C31 km/h---3.3 1001 hPa-
28/11/2021 06:292.6 °C93 %1.7 °C24 km/hONO48 km/h-2.2 1001 hPa-
28/11/2021 06:162.6 °C92 %1.7 °C31 km/h---3.3 1001 hPa-
28/11/2021 06:142.6 °C92 %1.7 °C29 km/hO48 km/h-2.8 1001 hPa-
28/11/2021 06:012.6 °C92 %1.7 °C27 km/h---2.8 1000 hPa-
28/11/2021 05:592.6 °C92 %1.7 °C27 km/hO48 km/h-2.8 1000 hPa-
28/11/2021 05:462.6 °C92 %1.7 °C24 km/h---2.2 1000 hPa-
28/11/2021 05:442.6 °C92 %1.7 °C23 km/hONO48 km/h-2.2 1000 hPa-
28/11/2021 05:312.6 °C92 %1.7 °C31 km/h---3.3 1000 hPa-
28/11/2021 05:292.6 °C92 %1.7 °C21 km/hONO48 km/h-1.7 1000 hPa-
28/11/2021 05:162.6 °C92 %1.7 °C32 km/h---3.3 1000 hPa-
28/11/2021 05:142.6 °C92 %1.7 °C29 km/hONO48 km/h-2.8 1000 hPa-
28/11/2021 05:012.6 °C93 %1.7 °C34 km/h---3.3 1000 hPa-
28/11/2021 04:592.6 °C93 %1.7 °C29 km/hO48 km/h-2.8 1000 hPa-
28/11/2021 04:462.6 °C93 %1.7 °C27 km/h---2.8 1000 hPa-
28/11/2021 04:442.5 °C93 %1.7 °C27 km/hONO48 km/h-2.8 1000 hPa-
28/11/2021 04:312.5 °C93 %1.7 °C26 km/h---2.2 1000 hPa-
28/11/2021 04:292.5 °C93 %1.7 °C31 km/hNO48 km/h-3.3 1000 hPa-
28/11/2021 04:162.5 °C93 %1.7 °C32 km/h---3.3 1000 hPa-
28/11/2021 04:142.5 °C93 %1.7 °C27 km/hO48 km/h-2.8 1000 hPa-
28/11/2021 04:012.5 °C93 %1.7 °C26 km/h---2.2 1000 hPa-
28/11/2021 03:592.5 °C93 %1.7 °C23 km/hONO48 km/h-2.2 1000 hPa-
28/11/2021 03:462.5 °C94 %1.7 °C29 km/h---2.8 1000 hPa-
28/11/2021 03:442.5 °C94 %1.7 °C32 km/hO48 km/h-3.3 1000 hPa-
28/11/2021 03:312.5 °C94 %1.7 °C32 km/h---3.3 1000 hPa-
28/11/2021 03:292.5 °C94 %1.7 °C23 km/hONO48 km/h-2.2 1000 hPa-
28/11/2021 03:162.5 °C94 %1.7 °C32 km/h---3.3 1000 hPa-
28/11/2021 03:142.5 °C94 %1.7 °C24 km/hO48 km/h-2.2 1000 hPa-
28/11/2021 03:012.6 °C94 %1.7 °C32 km/h---3.3 1000 hPa-
28/11/2021 03:002.6 °C94 %1.7 °C32 km/hONO48 km/h-3.3 1000 hPa-
28/11/2021 02:462.7 °C94 %1.7 °C31 km/h---3.3 1000 hPa-
28/11/2021 02:452.6 °C94 %1.7 °C35 km/hONO47 km/h-3.3 1000 hPa-
28/11/2021 02:322.7 °C94 %1.7 °C31 km/h---3.3 1000 hPa-
28/11/2021 02:302.7 °C94 %1.7 °C31 km/hO45 km/h-3.3 1000 hPa-
28/11/2021 02:162.7 °C94 %1.7 °C26 km/h---2.2 1000 hPa-
28/11/2021 02:152.7 °C94 %1.7 °C27 km/hO45 km/h-2.8 1000 hPa-
28/11/2021 02:012.8 °C94 %2.2 °C26 km/h---2.2 1000 hPa-
28/11/2021 02:002.8 °C94 %2.2 °C23 km/hO45 km/h-2.2 1000 hPa-
28/11/2021 01:472.9 °C94 %2.2 °C23 km/h---2.2 999 hPa-
28/11/2021 01:452.9 °C94 %2.2 °C32 km/hO45 km/h-3.3 999 hPa-
28/11/2021 01:322.9 °C94 %2.2 °C29 km/h---2.8 999 hPa-
28/11/2021 01:303.0 °C94 %2.2 °C29 km/hONO45 km/h-2.8 999 hPa-
28/11/2021 01:173.1 °C93 %2.2 °C24 km/h---1.7 999 hPa-
28/11/2021 01:153.2 °C94 %2.2 °C21 km/hO45 km/h-1.1 999 hPa-
28/11/2021 01:023.2 °C93 %2.2 °C31 km/h---2.2 999 hPa-
28/11/2021 01:003.3 °C93 %2.2 °C31 km/hO45 km/h-2.2 999 hPa-
28/11/2021 00:473.3 °C93 %2.2 °C32 km/h---2.8 999 hPa-
28/11/2021 00:453.3 °C93 %2.2 °C24 km/hO45 km/h-1.7 999 hPa-
28/11/2021 00:323.3 °C93 %2.2 °C18 km/h---0.6 999 hPa-
28/11/2021 00:303.3 °C93 %2.2 °C27 km/hONO45 km/h-1.7 999 hPa-
28/11/2021 00:173.3 °C93 %2.2 °C32 km/h---2.8 999 hPa-
28/11/2021 00:153.3 °C93 %2.2 °C35 km/hONO45 km/h-2.8 999 hPa-
28/11/2021 00:023.3 °C93 %2.2 °C27 km/h---1.7 998 hPa-
28/11/2021 00:003.3 °C93 %2.2 °C31 km/hO51 km/h-2.2 998 hPa5.4 mm


Minima :

Température : 0.4 °C
Humidité : 79 %
Point de rosée : -1.1 °C
Vent moyen : 10 km/h
Windchill : -4.4
Pression atm. : 998 hPa
Maxima :

Température : 4.8 °C
Humidité : 94 %
Point de rosée : 2.2 °C
Vent moyen : 39 km/h
Windchill : 0.6
Pression atm. : 1005 hPa
Rafales max : 51 km/h
Cumul de pluie sur 24H : 5.4 mm

Digny est une commune du département Eure-et-Loir (28).
La station météorologique du réseau de l'association la plus proche de Digny est celle de Le Mesnil-Thomas



Icône Facebook Association Météo Centre Icône Twitter Association Météo Centre Icône Chaîne Youtube Association Météo Centre Icône contact Association Météo Centre Icône Insta Association Météo Centre